Avella, PA

6:11 PM EDT on October 31, 2014 (GMT -0400)
Burgettstown PA | Change Station
CLOSE
Current Station
Personal Weather Station
Location: Burgsttown Pa, PA
Elevation: 988 ft
Nearby Weather Stations

Elev 988 ft 40.38 °N, 80.39 °W | Updated 2 minutes ago

Rain
Rain
42.8 °F
Feels Like 43 °F
N
0.0
Wind Variable Wind from ENE

Today
High -- | Low -- °F
--% Chance of Precip.
Yesterday
High -- | Low -- °F
Precip. -- in
7:50 AM 6:19 PM
First Quarter, 59% visible
Pressure 29.87 in
Visibility 10.0 miles
Clouds Few 2800 ft
Mostly Cloudy 3600 ft
Overcast 4900 ft
Windchill 43 °F
Dew Point 42 °F
Humidity 96%
Rainfall 0.00 in
Snow Depth Not available.
UV 0 out of 12
Pollen .10 out of 12
Air Quality Not available.
Flu Activity Not available.
METAR KAFJ 312155Z AUTO 00000KT 10SM FEW028 BKN036 OVC049 06/03 A2987 RMK AO1 P0001

More Conditions Fewer Conditions

Pressure 29.87 in
Visibility 10.0 miles
Clouds Few 2800 ft
Mostly Cloudy 3600 ft
Overcast 4900 ft
Windchill 43 °F
Dew Point 42 °F
Humidity 96%
Rainfall 0.00 in
Snow Depth Not available.
UV 0 out of 12
Pollen .10 out of 12
Air Quality Not available.
Flu Activity Not available.
METAR KAFJ 312155Z AUTO 00000KT 10SM FEW028 BKN036 OVC049 06/03 A2987 RMK AO1 P0001

More Conditions Fewer Conditions

10-Day Weather Forecast

Almanac

Astronomy

Oct. 31, 2014 Rise Set
Actual Time
Civil Twilight
Nautical Twilight
Astronomical Twilight
Moon
Length of Visible Light
Length of Day
Tomorrow will be .
, % of the Moon is Illuminated

Today's Extremes

State Highs State Lows

Community

WunderPhotos

Upload Photos

1,766,757 photos uploaded!

WunderBlogs® & News

Nearby

Air Quality

  Air Quality AQ Index Pollutant
Not available.

Snow Depth

Station Depth Elevation

Earthquake Activity

City Distance Mag. Time & Date
Minimum magnitude displayed is 2.5.

Coastal Water Temperatures

Place Temperature

Nearby Weather Stations